Time;durP1;ratioP1;P1;durP2;ratioP2;P2;SDS_P1;SDS_P2;PMS_P1;PMS_P2;Temp;Humidity;BMP_temperature;BMP_pressure;BME280_temperature;BME280_humidity;BME280_pressure;Samples;Min_cycle;Max_cycle;Signal;HPM_P1;HPM_P2
2022/10/10 00:00:45;;;;;;;5.60;2.05;;;;;;;12.98;48.36;100724.06;7607037;32;39836;-74
2022/10/10 00:05:02;;;;;;;3.60;2.12;;;;;;;12.99;48.24;100725.72;7618150;32;39822;-75
2022/10/10 00:09:18;;;;;;;5.35;2.20;;;;;;;12.88;48.81;100724.00;7606629;32;38116;-73
2022/10/10 00:13:34;;;;;;;4.95;2.20;;;;;;;12.76;49.38;100732.41;7606746;32;38377;-73
2022/10/10 00:17:50;;;;;;;3.40;2.00;;;;;;;13.00;48.67;100730.09;7606109;32;39278;-73
2022/10/10 00:22:06;;;;;;;7.10;2.50;;;;;;;12.57;50.15;100729.28;7606746;32;40726;-74
2022/10/10 00:26:22;;;;;;;4.18;1.92;;;;;;;12.55;49.96;100731.44;7606585;32;38240;-74
2022/10/10 00:30:39;;;;;;;5.70;2.50;;;;;;;12.81;49.39;100737.09;7606541;32;37012;-74
2022/10/10 00:34:55;;;;;;;4.53;2.03;;;;;;;12.65;49.95;100731.53;7606481;32;39158;-74
2022/10/10 00:39:11;;;;;;;4.75;2.30;;;;;;;12.33;51.17;100729.66;7606527;32;39691;-73
2022/10/10 00:43:28;;;;;;;6.00;2.10;;;;;;;12.47;50.76;100731.94;7606414;32;37850;-74
2022/10/10 00:47:45;;;;;;;5.03;1.95;;;;;;;12.57;50.44;100713.69;7606344;32;37172;-72
2022/10/10 00:52:01;;;;;;;3.75;2.30;;;;;;;12.50;50.51;100706.78;7606299;32;39188;-73
2022/10/10 00:56:21;;;;;;;5.43;2.37;;;;;;;12.43;50.52;100722.59;7617321;32;40668;-72
2022/10/10 01:00:37;;;;;;;5.20;1.95;;;;;;;12.51;49.51;100717.47;7606084;32;38821;-74
2022/10/10 01:04:54;;;;;;;4.07;1.90;;;;;;;12.60;49.38;100720.53;7606013;32;37159;-74
2022/10/10 01:09:10;;;;;;;3.42;2.08;;;;;;;12.59;49.19;100711.53;7606043;32;40193;-74
2022/10/10 01:13:44;;;;;;;4.62;1.73;;;;;;;12.45;50.33;100710.31;7605843;32;40005;-74
2022/10/10 01:18:06;;;;;;;6.10;2.10;;;;;;;12.41;50.42;100709.19;7604685;32;37903;-74
2022/10/10 01:22:53;;;;;;;6.10;2.70;;;;;;;12.49;49.43;100696.97;7616917;32;37034;-74
2022/10/10 01:27:28;;;;;;;6.15;2.47;;;;;;;12.33;50.10;100694.09;7606041;32;39319;-74
2022/10/10 01:31:50;;;;;;;4.60;2.55;;;;;;;12.44;49.87;100697.72;7615370;32;39949;-73
2022/10/10 01:36:09;;;;;;;3.92;2.22;;;;;;;12.40;50.29;100697.44;7605682;32;38040;-72
2022/10/10 01:40:59;;;;;;;7.57;2.20;;;;;;;12.55;49.62;100696.72;7617319;32;37958;-74
2022/10/10 01:45:16;;;;;;;4.97;2.33;;;;;;;12.63;49.32;100695.41;7615834;32;39826;-72
2022/10/10 01:49:33;;;;;;;5.32;2.30;;;;;;;12.26;51.15;100692.66;7605480;32;40804;-73
2022/10/10 01:54:05;;;;;;;4.00;2.28;;;;;;;12.09;52.02;100693.63;7616627;32;37934;-74
2022/10/10 01:58:46;;;;;;;7.93;2.42;;;;;;;11.97;52.34;100688.31;7615730;32;36737;-73
2022/10/10 02:03:19;;;;;;;5.90;2.47;;;;;;;11.99;52.33;100680.69;7605399;32;39403;-73
2022/10/10 02:07:41;;;;;;;10.15;2.75;;;;;;;11.80;52.93;100682.13;7614850;32;40019;-74
2022/10/10 02:11:59;;;;;;;6.85;2.80;;;;;;;11.49;54.03;100675.50;7616238;32;37804;-73
2022/10/10 02:16:37;;;;;;;4.80;2.72;;;;;;;11.33;54.53;100680.81;7615720;32;37162;-73
2022/10/10 02:20:53;;;;;;;6.05;2.95;;;;;;;11.40;54.47;100684.16;7614232;32;40648;-74
2022/10/10 02:25:10;;;;;;;7.45;2.80;;;;;;;11.68;53.70;100686.91;7616121;32;39938;-73
2022/10/10 02:29:35;;;;;;;11.48;3.05;;;;;;;11.68;53.75;100681.47;7604920;32;38037;-73
2022/10/10 02:34:22;;;;;;;6.78;2.92;;;;;;;11.95;52.77;100690.50;7615249;32;37018;-73
2022/10/10 02:38:38;;;;;;;7.90;2.80;;;;;;;11.76;53.60;100692.75;7604656;32;38128;-73
2022/10/10 02:42:56;;;;;;;6.70;3.00;;;;;;;11.64;53.45;100689.31;7616321;32;40147;-73
2022/10/10 02:47:13;;;;;;;5.72;2.55;;;;;;;11.62;53.73;100684.13;7617939;32;37738;-74
2022/10/10 02:51:29;;;;;;;6.00;3.15;;;;;;;11.64;53.46;100692.88;7618239;32;37157;-74
2022/10/10 02:55:45;;;;;;;8.70;3.03;;;;;;;11.96;52.40;100694.87;7607512;32;39299;-74
2022/10/10 03:00:01;;;;;;;10.32;2.95;;;;;;;11.77;53.14;100699.03;7607490;32;39629;-73
2022/10/10 03:04:17;;;;;;;6.57;2.50;;;;;;;11.76;53.12;100687.28;7607458;32;37860;-73
2022/10/10 03:08:36;;;;;;;6.68;2.42;;;;;;;11.85;52.91;100695.84;7607639;32;38032;-73
2022/10/10 03:12:52;;;;;;;6.40;2.78;;;;;;;11.76;53.22;100697.38;7606480;32;39308;-73
2022/10/10 03:17:08;;;;;;;5.50;2.70;;;;;;;11.72;53.40;100696.25;7613496;32;39960;-72
2022/10/10 03:21:24;;;;;;;8.20;2.60;;;;;;;11.42;54.31;100695.66;7607473;32;38639;-73
2022/10/10 03:25:42;;;;;;;6.62;3.12;;;;;;;11.28;54.87;100691.66;7607446;32;37931;-73
2022/10/10 03:29:58;;;;;;;8.63;2.80;;;;;;;11.49;54.18;100689.16;7607353;32;38244;-74
2022/10/10 03:34:14;;;;;;;5.47;2.67;;;;;;;11.24;54.75;100690.50;7607263;32;40908;-76
2022/10/10 03:38:30;;;;;;;8.43;2.60;;;;;;;11.35;54.41;100692.28;7607215;32;38792;-72
2022/10/10 03:42:46;;;;;;;10.30;3.00;;;;;;;11.16;56.06;100694.50;7607270;32;37866;-72
2022/10/10 03:47:03;;;;;;;6.45;2.70;;;;;;;11.35;55.15;100685.97;7606996;32;39144;-73
2022/10/10 03:51:19;;;;;;;5.40;2.80;;;;;;;11.06;55.88;100691.66;7607177;32;40601;-73
2022/10/10 03:55:37;;;;;;;5.55;2.97;;;;;;;11.26;55.10;100688.34;7606172;32;37600;-74
2022/10/10 03:59:53;;;;;;;5.47;2.80;;;;;;;10.97;55.63;100685.81;7607154;32;36957;-73
2022/10/10 04:04:10;;;;;;;4.93;2.70;;;;;;;11.07;55.01;100685.94;7606832;32;40117;-72
2022/10/10 04:08:27;;;;;;;5.78;2.42;;;;;;;10.84;55.77;100692.44;7617949;32;40750;-71
2022/10/10 04:12:43;;;;;;;4.25;2.60;;;;;;;10.73;56.12;100685.22;7606794;32;38064;-73
2022/10/10 04:16:59;;;;;;;11.68;3.15;;;;;;;10.71;56.22;100684.63;7606899;32;37032;-74
2022/10/10 04:21:18;;;;;;;5.72;2.58;;;;;;;10.73;56.06;100685.22;7606880;32;40155;-73
2022/10/10 04:25:34;;;;;;;6.80;2.55;;;;;;;10.93;55.25;100678.38;7606780;32;40016;-72
2022/10/10 04:29:50;;;;;;;7.18;3.05;;;;;;;10.89;55.43;100683.50;7606522;32;37886;-72
2022/10/10 04:34:06;;;;;;;5.20;2.85;;;;;;;10.87;55.33;100681.03;7606543;32;37997;-71
2022/10/10 04:38:22;;;;;;;3.65;2.67;;;;;;;10.93;55.50;100673.72;7606633;32;39423;-72
2022/10/10 04:42:38;;;;;;;7.50;3.05;;;;;;;10.57;56.43;100680.59;7606590;32;39950;-73
2022/10/10 04:46:54;;;;;;;3.50;2.20;;;;;;;10.85;55.62;100677.75;7606443;32;38878;-73
2022/10/10 04:51:10;;;;;;;6.57;3.15;;;;;;;10.81;55.67;100676.56;7606485;32;37774;-72
2022/10/10 04:55:26;;;;;;;5.07;2.72;;;;;;;10.56;56.58;100678.97;7606424;32;40123;-74
2022/10/10 04:59:43;;;;;;;5.32;2.62;;;;;;;10.58;56.36;100684.97;7617486;32;40044;-73
2022/10/10 05:03:59;;;;;;;7.20;2.78;;;;;;;10.47;56.63;100682.09;7605820;32;37891;-73
2022/10/10 05:08:15;;;;;;;5.97;2.78;;;;;;;10.82;55.62;100689.16;7606345;32;37594;-73
2022/10/10 05:12:31;;;;;;;7.20;2.90;;;;;;;10.93;55.27;100684.66;7606166;32;39288;-74
2022/10/10 05:16:47;;;;;;;4.68;2.90;;;;;;;10.78;55.65;100688.00;7606116;32;39991;-74
2022/10/10 05:21:06;;;;;;;5.85;2.55;;;;;;;10.71;55.69;100687.38;7606117;32;38814;-74
2022/10/10 05:25:22;;;;;;;7.32;3.15;;;;;;;10.67;56.20;100687.00;7606274;32;36153;-72
2022/10/10 05:29:38;;;;;;;6.87;3.15;;;;;;;10.63;56.31;100685.06;7606106;32;40039;-72
2022/10/10 05:33:54;;;;;;;4.70;2.80;;;;;;;11.01;55.06;100678.75;7605906;32;40859;-72
2022/10/10 05:38:10;;;;;;;6.57;2.70;;;;;;;10.97;55.31;100684.97;7605918;32;38722;-72
2022/10/10 05:42:27;;;;;;;3.75;2.50;;;;;;;11.14;55.03;100688.50;7605892;32;37014;-72
2022/10/10 05:46:43;;;;;;;6.97;3.20;;;;;;;11.24;54.07;100688.59;7605836;32;39124;-76
2022/10/10 05:51:00;;;;;;;6.97;3.03;;;;;;;11.35;53.86;100685.97;7605781;32;40553;-71
2022/10/10 05:55:16;;;;;;;4.85;3.00;;;;;;;11.69;65.69;100691.28;7605502;32;38946;-72
2022/10/10 05:59:32;;;;;;;5.62;2.55;;;;;;;12.10;59.19;100689.78;7605658;32;38064;-72
2022/10/10 06:03:54;;;;;;;7.87;2.60;;;;;;;12.43;52.42;100684.31;7605420;32;40053;-79
2022/10/10 06:08:11;;;;;;;6.55;2.85;;;;;;;11.97;52.74;100691.06;7605525;32;40834;-74
2022/10/10 06:12:27;;;;;;;4.55;2.33;;;;;;;12.25;53.50;100694.59;7605320;32;38695;-70
2022/10/10 06:16:44;;;;;;;5.07;2.55;;;;;;;12.50;50.52;100695.84;7604435;32;37006;-74
2022/10/10 06:21:05;;;;;;;4.85;2.40;;;;;;;12.21;52.01;100693.44;7605253;32;39338;-74
2022/10/10 06:25:21;;;;;;;6.22;2.47;;;;;;;12.54;50.76;100691.53;7605234;32;39635;-73
2022/10/10 06:29:55;;;;;;;4.25;2.28;;;;;;;12.73;49.77;100691.94;7605059;32;37711;-73
2022/10/10 06:34:11;;;;;;;8.70;2.83;;;;;;;12.91;49.02;100685.16;7604885;32;36747;-73
2022/10/10 06:38:27;;;;;;;7.60;2.62;;;;;;;13.16;48.91;100673.53;7604822;32;39197;-74
2022/10/10 06:42:43;;;;;;;5.50;2.75;;;;;;;12.98;49.83;100687.69;7603767;32;39877;-74
2022/10/10 06:46:59;;;;;;;5.80;2.55;;;;;;;13.32;48.79;100677.19;7601582;32;38717;-73
2022/10/10 06:51:16;;;;;;;7.62;2.42;;;;;;;13.63;48.31;100674.53;7604455;32;37074;-73
2022/10/10 06:55:32;;;;;;;4.10;2.12;;;;;;;13.51;48.17;100678.31;7604405;32;40036;-73
2022/10/10 06:59:48;;;;;;;4.40;2.50;;;;;;;13.90;46.99;100669.66;7604670;32;39885;-72
2022/10/10 07:04:04;;;;;;;6.12;2.15;;;;;;;14.06;47.39;100672.41;7599266;32;38064;-72
2022/10/10 07:08:22;;;;;;;5.53;2.47;;;;;;;14.21;46.84;100675.16;7602839;32;38426;-72
2022/10/10 07:12:38;;;;;;;3.83;2.10;;;;;;;14.35;46.12;100671.81;7603598;32;40166;-73
2022/10/10 07:16:59;;;;;;;5.82;2.67;;;;;;;14.65;45.24;100669.06;7602374;32;40558;-72
2022/10/10 07:21:15;;;;;;;6.25;2.30;;;;;;;14.52;47.94;100680.63;7603399;32;37888;-72
2022/10/10 07:25:31;;;;;;;5.62;2.47;;;;;;;14.55;46.19;100674.53;7602175;32;37356;-73
2022/10/10 07:29:47;;;;;;;3.70;2.28;;;;;;;15.04;45.63;100670.34;7606431;32;40076;-73
2022/10/10 07:34:05;;;;;;;3.92;2.35;;;;;;;15.36;44.48;100663.63;7606803;32;40203;-74
2022/10/10 07:38:21;;;;;;;4.07;2.05;;;;;;;15.29;44.28;100654.88;7606830;32;37917;-73
2022/10/10 07:42:37;;;;;;;8.90;2.00;;;;;;;15.71;43.21;100657.09;7606879;32;37632;-73
2022/10/10 07:46:53;;;;;;;5.45;1.80;;;;;;;15.72;43.87;100664.22;7606296;32;38990;-73
2022/10/10 07:51:10;;;;;;;3.55;2.00;;;;;;;15.76;42.86;100656.25;7607156;32;40542;-75
2022/10/10 07:55:26;;;;;;;3.50;1.87;;;;;;;15.55;42.35;100661.03;7606006;32;37930;-73
2022/10/10 07:59:44;;;;;;;4.32;1.92;;;;;;;16.21;40.82;100651.53;7607100;32;37968;-72
2022/10/10 08:04:00;;;;;;;3.75;1.60;;;;;;;16.11;40.77;100660.69;7617358;32;40041;-73
2022/10/10 08:08:16;;;;;;;4.47;1.90;;;;;;;16.39;38.49;100658.22;7606392;32;40806;-73
2022/10/10 08:12:32;;;;;;;7.75;3.30;;;;;;;16.69;39.16;100659.03;7589671;32;38715;-73
2022/10/10 08:16:48;;;;;;;5.10;2.65;;;;;;;16.91;38.26;100652.22;7580150;33;36991;-73
2022/10/10 08:21:07;;;;;;;10.57;3.85;;;;;;;16.94;37.66;100660.72;7580962;33;40160;-73
2022/10/10 08:25:23;;;;;;;13.25;3.08;;;;;;;17.03;38.04;100658.13;7580258;33;39902;-73
2022/10/10 08:29:39;;;;;;;6.32;2.78;;;;;;;17.41;35.74;100653.50;7580421;33;37771;-74
2022/10/10 08:33:55;;;;;;;3.92;2.08;;;;;;;16.97;37.32;100648.28;7580226;33;37696;-74
2022/10/10 08:38:13;;;;;;;10.07;1.83;;;;;;;17.29;36.84;100655.06;7580249;33;39414;-73
2022/10/10 08:42:41;;;;;;;5.53;1.60;;;;;;;17.29;36.51;100644.03;7579868;33;39944;-74
2022/10/10 08:47:06;;;;;;;5.43;2.05;;;;;;;17.82;35.62;100639.12;7589843;32;37788;-73
2022/10/10 08:51:31;;;;;;;4.87;1.87;;;;;;;17.98;35.40;100628.69;7580633;33;37976;-73
2022/10/10 08:55:47;;;;;;;3.17;1.50;;;;;;;18.24;34.23;100633.78;7580000;33;39211;-74
2022/10/10 09:00:13;;;;;;;3.72;1.70;;;;;;;18.26;34.20;100628.75;7591069;32;40058;-74
2022/10/10 09:04:32;;;;;;;3.05;1.62;;;;;;;18.21;33.44;100637.13;7596831;32;38555;-76
2022/10/10 09:09:16;;;;;;;2.87;1.90;;;;;;;18.84;33.38;100619.16;7604085;32;37733;-74
2022/10/10 09:13:44;;;;;;;5.30;1.75;;;;;;;18.91;34.09;100610.47;7614608;32;39851;-73
2022/10/10 09:18:22;;;;;;;3.62;1.60;;;;;;;19.25;32.23;100614.72;7606340;32;40760;-73
2022/10/10 09:22:53;;;;;;;10.48;2.10;;;;;;;19.30;33.50;100606.31;7606183;32;38241;-74
2022/10/10 09:27:15;;;;;;;3.50;1.70;;;;;;;19.47;32.54;100609.25;7606198;32;37843;-74
2022/10/10 09:31:59;;;;;;;9.38;2.17;;;;;;;20.01;31.85;100603.00;7606019;32;39054;-73
2022/10/10 09:36:20;;;;;;;7.55;1.70;;;;;;;20.04;31.81;100607.88;7611890;32;39834;-73
2022/10/10 09:40:38;;;;;;;6.72;1.65;;;;;;;20.09;32.00;100599.44;7617179;32;37255;-73
2022/10/10 09:44:54;;;;;;;6.32;1.87;;;;;;;20.26;32.78;100604.28;7616930;32;36896;-72
2022/10/10 09:49:13;;;;;;;3.58;1.73;;;;;;;20.92;30.84;100593.34;7605805;32;40017;-73
2022/10/10 09:53:29;;;;;;;4.62;1.58;;;;;;;20.85;30.20;100598.53;7615422;32;39617;-73
2022/10/10 09:57:45;;;;;;;7.20;1.67;;;;;;;21.32;29.99;100600.75;7605527;32;38249;-73
2022/10/10 10:02:09;;;;;;;5.70;1.60;;;;;;;21.62;28.63;100590.66;7605661;32;37830;-74
2022/10/10 10:06:25;;;;;;;6.10;1.67;;;;;;;21.88;29.74;100578.72;7605473;32;39569;-74
2022/10/10 10:10:41;;;;;;;11.15;1.70;;;;;;;21.86;29.40;100581.84;7605563;32;40067;-74
2022/10/10 10:15:05;;;;;;;3.85;1.30;;;;;;;22.30;28.34;100578.97;7616226;32;38065;-73
2022/10/10 10:19:39;;;;;;;4.05;1.30;;;;;;;22.34;28.37;100570.81;7605443;32;37007;-74
2022/10/10 10:23:59;;;;;;;2.37;1.55;;;;;;;22.42;27.24;100565.22;7605292;32;39305;-74
2022/10/10 10:28:19;;;;;;;3.08;1.45;;;;;;;22.36;28.48;100558.22;7604668;32;40192;-73
2022/10/10 10:33:08;;;;;;;3.75;1.50;;;;;;;23.04;26.79;100562.91;7615979;32;38086;-74
2022/10/10 10:37:36;;;;;;;4.47;1.60;;;;;;;23.22;27.69;100553.34;7603481;32;37799;-73
2022/10/10 10:42:10;;;;;;;7.35;1.80;;;;;;;23.46;25.88;100543.50;7614994;32;39417;-72
2022/10/10 10:46:49;;;;;;;4.78;1.40;;;;;;;24.02;26.10;100545.09;7614478;32;40727;-74
2022/10/10 10:51:25;;;;;;;2.53;1.33;;;;;;;24.03;25.37;100538.37;7613655;32;39140;-73
2022/10/10 10:56:01;;;;;;;2.22;1.10;;;;;;;23.72;25.38;100537.69;7604475;32;36992;-73
2022/10/10 11:00:18;;;;;;;2.22;1.30;;;;;;;24.53;25.84;100523.34;7613863;32;39850;-74
2022/10/10 11:05:15;;;;;;;4.10;1.20;;;;;;;24.26;25.80;100527.63;7606760;32;40250;-72
2022/10/10 11:10:32;;;;;;;3.72;1.65;;;;;;;23.91;26.30;100516.91;7607708;32;38545;-74
2022/10/10 11:14:56;;;;;;;3.83;1.25;;;;;;;23.95;25.07;100513.06;7586757;32;37803;-73
2022/10/10 11:19:24;;;;;;;3.28;1.75;;;;;;;23.80;25.64;100505.31;7607536;32;40197;-75
2022/10/10 11:23:44;;;;;;;3.12;1.30;;;;;;;24.47;25.86;100511.59;7607506;32;40013;-72
2022/10/10 11:28:25;;;;;;;2.22;1.30;;;;;;;24.90;25.13;100501.00;7618082;32;38692;-73
2022/10/10 11:33:04;;;;;;;4.90;2.05;;;;;;;24.44;25.72;100498.37;7604479;32;37836;-74
2022/10/10 11:37:29;;;;;;;3.67;1.50;;;;;;;24.16;25.69;100490.72;7604514;32;39359;-73
2022/10/10 11:42:06;;;;;;;4.37;1.70;;;;;;;23.43;26.53;100480.97;7615425;32;40850;-75
2022/10/10 11:46:40;;;;;;;3.72;1.70;;;;;;;23.66;26.78;100479.78;7614865;32;38797;-74
2022/10/10 11:51:02;;;;;;;5.03;1.98;;;;;;;24.15;26.88;100477.94;7606045;32;37067;-73
2022/10/10 11:55:25;;;;;;;4.18;1.80;;;;;;;23.99;26.58;100475.03;7618374;32;39315;-78
2022/10/10 11:59:46;;;;;;;4.30;1.50;;;;;;;23.60;27.17;100471.66;7607057;32;40742;-75
2022/10/10 12:04:02;;;;;;;12.40;3.03;;;;;;;23.79;27.90;100471.13;7617592;32;38702;-75
2022/10/10 12:08:43;;;;;;;9.40;1.80;;;;;;;23.98;27.32;100456.69;7606955;32;37099;-75
2022/10/10 12:13:16;;;;;;;5.35;1.77;;;;;;;24.66;26.77;100460.06;7606327;32;40173;-75
2022/10/10 12:17:36;;;;;;;4.45;1.65;;;;;;;24.81;25.57;100453.75;7616444;32;40699;-75
2022/10/10 12:22:07;;;;;;;4.70;2.25;;;;;;;24.54;26.58;100450.56;7617613;32;38223;-76
2022/10/10 12:26:24;;;;;;;11.35;3.28;;;;;;;24.47;27.06;100450.28;7606908;32;36902;-75
2022/10/10 12:30:55;;;;;;;9.60;4.20;;;;;;;24.38;26.50;100444.84;7606700;32;39311;-74
2022/10/10 12:35:32;;;;;;;7.35;3.03;;;;;;;24.64;25.89;100437.28;7606778;32;39912;-75
2022/10/10 12:40:07;;;;;;;15.65;5.80;;;;;;;24.65;27.32;100439.75;7606631;32;38819;-74
2022/10/10 12:44:25;;;;;;;4.30;1.55;;;;;;;25.17;25.10;100437.25;7606695;32;36956;-75
2022/10/10 12:48:41;;;;;;;6.22;2.30;;;;;;;25.74;22.89;100427.66;7606581;32;40002;-75
2022/10/10 12:53:00;;;;;;;8.70;3.97;;;;;;;25.44;24.48;100421.66;7606529;32;39718;-74
2022/10/10 12:57:36;;;;;;;11.38;5.25;;;;;;;25.43;24.28;100422.84;7606355;32;38013;-75
2022/10/10 13:02:04;;;;;;;3.67;1.52;;;;;;;25.03;25.10;100420.94;7606391;32;37172;-73
2022/10/10 13:06:33;;;;;;;6.43;1.70;;;;;;;25.04;23.92;100422.53;7606337;32;40084;-74
2022/10/10 13:11:05;;;;;;;4.57;1.87;;;;;;;25.17;24.33;100414.94;7606341;32;40755;-75
2022/10/10 13:15:22;;;;;;;7.43;2.00;;;;;;;24.77;24.16;100419.38;7606213;32;38039;-74
2022/10/10 13:19:41;;;;;;;5.40;1.40;;;;;;;24.84;25.56;100414.00;7606149;32;38042;-74
2022/10/10 13:23:59;;;;;;;3.78;1.65;;;;;;;24.24;25.70;100410.16;7606324;32;40096;-74
2022/10/10 13:28:20;;;;;;;3.27;1.80;;;;;;;23.91;26.66;100411.91;7605934;32;40089;-74
2022/10/10 13:32:36;;;;;;;6.20;1.80;;;;;;;23.85;26.69;100407.69;7606073;32;37937;-75
2022/10/10 13:36:57;;;;;;;2.25;1.35;;;;;;;23.24;26.68;100413.94;7617032;32;36755;-74
2022/10/10 13:41:15;;;;;;;4.20;1.73;;;;;;;23.33;27.25;100416.63;7616685;32;39491;-75
2022/10/10 13:45:36;;;;;;;8.02;1.67;;;;;;;23.27;27.34;100415.19;7616871;32;39947;-75
2022/10/10 13:49:56;;;;;;;3.15;1.77;;;;;;;23.11;27.52;100415.88;7605833;32;38232;-74
2022/10/10 13:54:35;;;;;;;3.67;1.80;;;;;;;22.75;27.55;100405.31;7604845;32;37801;-75
2022/10/10 13:58:56;;;;;;;4.18;1.60;;;;;;;22.47;28.54;100398.34;7605551;32;39226;-74
2022/10/10 14:03:18;;;;;;;3.60;1.77;;;;;;;22.46;28.29;100387.59;7605399;32;40004;-74
2022/10/10 14:07:35;;;;;;;4.93;1.50;;;;;;;22.81;27.54;100385.34;7605687;32;38750;-74
2022/10/10 14:11:53;;;;;;;3.08;1.40;;;;;;;22.64;27.84;100377.13;7605120;32;37117;-72
2022/10/10 14:16:29;;;;;;;4.72;1.67;;;;;;;22.67;28.40;100370.91;7605438;32;39064;-73
2022/10/10 14:20:46;;;;;;;1.92;1.42;;;;;;;22.37;28.16;100370.97;7605378;32;40853;-73
2022/10/10 14:25:03;;;;;;;7.93;1.70;;;;;;;22.36;27.80;100372.13;7614712;32;38038;-74
2022/10/10 14:29:20;;;;;;;4.37;1.70;;;;;;;21.57;27.80;100377.22;7602832;32;38238;-73
2022/10/10 14:33:36;;;;;;;6.20;1.70;;;;;;;21.87;27.86;100366.16;7604169;32;40288;-74
2022/10/10 14:37:52;;;;;;;5.07;1.85;;;;;;;21.78;28.91;100365.41;7608048;32;40748;-73
2022/10/10 14:42:13;;;;;;;4.50;1.60;;;;;;;21.78;28.95;100360.66;7613773;32;38696;-73
2022/10/10 14:46:29;;;;;;;2.25;1.27;;;;;;;21.30;29.59;100354.28;7613445;32;37052;-74
2022/10/10 14:50:48;;;;;;;4.80;1.42;;;;;;;20.79;29.83;100350.47;7613653;32;39039;-74
2022/10/10 14:55:04;;;;;;;5.80;1.67;;;;;;;20.62;30.59;100352.06;7613260;32;40015;-73
2022/10/10 14:59:21;;;;;;;5.95;1.58;;;;;;;20.77;29.74;100358.28;7612987;32;37904;-73
2022/10/10 15:03:57;;;;;;;2.60;1.50;;;;;;;20.58;32.28;100356.63;7612217;32;38311;-73
2022/10/10 15:08:14;;;;;;;3.25;1.75;;;;;;;20.48;33.56;100356.13;7612732;32;40087;-73
2022/10/10 15:12:33;;;;;;;4.30;1.55;;;;;;;20.22;32.40;100363.25;7611796;32;40006;-74
2022/10/10 15:16:49;;;;;;;4.28;1.77;;;;;;;20.02;35.08;100359.16;7611336;32;37901;-73
2022/10/10 15:21:12;;;;;;;2.92;1.50;;;;;;;19.92;35.29;100361.38;7611524;32;36996;-73
2022/10/10 15:25:29;;;;;;;5.40;1.70;;;;;;;19.52;35.56;100356.63;7610190;32;40155;-72
2022/10/10 15:29:49;;;;;;;15.75;2.30;;;;;;;19.46;33.47;100350.44;7611367;32;41338;-75
2022/10/10 15:34:05;;;;;;;6.18;1.85;;;;;;;19.34;33.66;100353.00;7612230;32;38285;-76
2022/10/10 15:38:21;;;;;;;6.00;1.40;;;;;;;19.05;33.57;100351.50;7612501;32;37205;-74
2022/10/10 15:42:37;;;;;;;3.05;1.40;;;;;;;19.02;33.94;100343.84;7612181;32;39134;-76
2022/10/10 15:46:54;;;;;;;3.22;1.60;;;;;;;19.07;34.49;100349.25;7611945;32;41069;-78
2022/10/10 15:51:11;;;;;;;8.27;1.48;;;;;;;19.17;35.64;100345.41;7602696;32;38056;-79
2022/10/10 15:55:28;;;;;;;3.28;1.58;;;;;;;19.00;35.08;100340.59;7602503;32;37844;-77
2022/10/10 15:59:44;;;;;;;3.30;1.60;;;;;;;18.46;37.20;100343.25;7606540;32;40123;-73
2022/10/10 16:04:02;;;;;;;4.90;1.40;;;;;;;18.27;37.15;100342.59;7605354;32;40006;-73
2022/10/10 16:08:18;;;;;;;4.68;1.52;;;;;;;18.06;37.21;100339.44;7606987;32;36927;-74
2022/10/10 16:12:34;;;;;;;3.85;1.40;;;;;;;18.08;35.23;100342.72;7606063;32;37265;-75
2022/10/10 16:16:50;;;;;;;6.12;1.50;;;;;;;18.16;36.68;100348.31;7606930;32;39298;-75
2022/10/10 16:21:12;;;;;;;5.30;1.67;;;;;;;18.19;37.59;100342.16;7606192;32;40934;-75
2022/10/10 16:25:28;;;;;;;9.25;1.65;;;;;;;17.86;37.90;100351.69;7617472;32;37599;-75
2022/10/10 16:29:45;;;;;;;6.00;1.73;;;;;;;17.93;38.25;100352.13;7606264;32;37048;-74
2022/10/10 16:34:01;;;;;;;2.62;1.58;;;;;;;17.53;39.06;100352.59;7606063;32;39871;-75
2022/10/10 16:38:17;;;;;;;4.30;1.87;;;;;;;17.36;38.68;100350.41;7606618;32;40615;-75
2022/10/10 16:42:33;;;;;;;6.87;1.70;;;;;;;17.34;37.76;100360.13;7605635;32;37702;-74
2022/10/10 16:46:49;;;;;;;3.92;1.65;;;;;;;17.08;39.06;100357.81;7606633;32;37787;-75
2022/10/10 16:51:15;;;;;;;9.27;2.20;;;;;;;17.19;37.88;100353.75;7605965;32;39463;-75
2022/10/10 16:55:31;;;;;;;4.07;2.00;;;;;;;17.32;37.84;100352.16;7604383;32;40882;-74
2022/10/10 16:59:47;;;;;;;3.95;1.77;;;;;;;17.19;38.45;100353.75;7604506;32;38704;-72
2022/10/10 17:04:04;;;;;;;4.82;2.17;;;;;;;17.01;39.41;100354.63;7605454;32;37051;-73
2022/10/10 17:08:20;;;;;;;5.03;2.20;;;;;;;16.93;40.03;100355.31;7606321;32;40081;-72
2022/10/10 17:12:36;;;;;;;4.55;2.33;;;;;;;16.89;40.13;100361.41;7604968;32;39896;-73
2022/10/10 17:16:52;;;;;;;4.75;2.10;;;;;;;16.89;40.05;100369.69;7605877;32;37961;-73
2022/10/10 17:21:26;;;;;;;8.82;2.58;;;;;;;16.69;40.69;100367.22;7605397;32;37754;-74
2022/10/10 17:25:44;;;;;;;5.90;2.10;;;;;;;16.70;40.55;100357.84;7605307;32;40011;-73
2022/10/10 17:30:00;;;;;;;4.72;2.37;;;;;;;16.83;39.75;100354.34;7605432;32;40851;-72
2022/10/10 17:34:16;;;;;;;4.15;2.10;;;;;;;16.83;39.41;100357.09;7616849;32;38055;-72
2022/10/10 17:38:35;;;;;;;7.62;2.40;;;;;;;16.62;40.07;100355.75;7623149;32;38177;-73
2022/10/10 17:42:55;;;;;;;11.68;2.40;;;;;;;16.55;41.01;100352.56;7606444;32;40507;-72
2022/10/10 17:47:11;;;;;;;5.45;2.30;;;;;;;16.66;40.68;100356.78;7605041;32;39618;-77
2022/10/10 17:51:27;;;;;;;5.40;2.60;;;;;;;16.55;39.92;100356.13;7605572;32;37644;-74
2022/10/10 17:55:43;;;;;;;5.87;2.25;;;;;;;16.72;40.22;100350.09;7605491;32;37665;-74
2022/10/10 18:00:00;;;;;;;5.70;2.30;;;;;;;16.72;39.66;100344.59;7605195;32;40017;-73
2022/10/10 18:04:16;;;;;;;5.80;2.35;;;;;;;16.26;40.88;100359.03;7605466;32;39996;-73
2022/10/10 18:08:32;;;;;;;5.43;2.30;;;;;;;16.64;40.04;100348.03;7604935;32;38274;-74
2022/10/10 18:12:48;;;;;;;6.40;2.50;;;;;;;16.28;40.46;100351.28;7602936;32;37588;-73
2022/10/10 18:17:04;;;;;;;5.82;2.97;;;;;;;16.61;39.73;100343.94;7605226;32;39298;-72
2022/10/10 18:21:22;;;;;;;8.82;2.40;;;;;;;16.64;39.14;100342.50;7604790;32;40797;-74
2022/10/10 18:25:38;;;;;;;6.45;2.55;;;;;;;16.65;39.15;100344.16;7605289;32;37999;-74
2022/10/10 18:29:54;;;;;;;9.20;3.05;;;;;;;16.39;39.46;100347.28;7604789;32;37031;-74
2022/10/10 18:34:10;;;;;;;7.50;2.30;;;;;;;16.32;39.61;100346.84;7579191;33;39802;-74
2022/10/10 18:38:27;;;;;;;5.12;2.60;;;;;;;16.08;40.17;100344.94;7589998;32;40831;-73
2022/10/10 18:42:43;;;;;;;9.32;2.70;;;;;;;16.13;40.36;100344.06;7584473;32;38896;-72
2022/10/10 18:46:59;;;;;;;7.20;2.60;;;;;;;15.90;40.93;100343.81;7604843;32;36778;-71
2022/10/10 18:51:18;;;;;;;7.62;3.12;;;;;;;15.90;40.83;100351.22;7604749;32;39869;-71
2022/10/10 18:55:36;;;;;;;4.82;2.78;;;;;;;15.97;40.51;100357.22;7604379;32;39977;-71
2022/10/10 18:59:53;;;;;;;27.23;3.53;;;;;;;15.65;41.34;100360.59;7604150;32;37873;-72
2022/10/10 19:04:10;;;;;;;5.57;2.75;;;;;;;15.62;41.28;100361.97;7604184;32;37069;-71
2022/10/10 19:08:27;;;;;;;8.18;3.03;;;;;;;15.64;41.53;100358.94;7604269;32;40155;-72
2022/10/10 19:12:48;;;;;;;7.97;3.00;;;;;;;15.73;42.06;100358.00;7614640;32;39660;-72
2022/10/10 19:17:04;;;;;;;9.80;3.50;;;;;;;15.96;41.44;100350.06;7604009;32;37117;-71
2022/10/10 19:21:21;;;;;;;7.50;2.72;;;;;;;15.52;42.24;100362.91;7603855;32;38035;-70
2022/10/10 19:25:41;;;;;;;9.88;4.15;;;;;;;15.73;40.51;100360.75;7607036;32;39876;-70
2022/10/10 19:29:58;;;;;;;6.57;3.20;;;;;;;15.49;43.52;100362.69;7606044;32;39589;-70
2022/10/10 19:34:14;;;;;;;6.90;3.37;;;;;;;15.34;43.83;100372.69;7607097;32;38039;-70
2022/10/10 19:38:31;;;;;;;9.07;3.22;;;;;;;15.28;43.33;100357.38;7607127;32;37314;-69
2022/10/10 19:42:48;;;;;;;7.35;3.08;;;;;;;15.10;43.25;100367.16;7617374;32;39426;-70
2022/10/10 19:47:04;;;;;;;5.05;2.85;;;;;;;15.19;43.40;100364.59;7607215;32;40018;-69
2022/10/10 19:51:20;;;;;;;8.65;3.05;;;;;;;15.08;45.01;100361.12;7606644;32;38868;-69
2022/10/10 19:55:36;;;;;;;8.60;2.90;;;;;;;15.16;45.21;100359.66;7618130;32;37084;-69
2022/10/10 19:59:52;;;;;;;5.35;2.65;;;;;;;14.71;45.85;100353.47;7606847;32;39954;-70
2022/10/10 20:04:08;;;;;;;5.40;2.80;;;;;;;14.68;45.81;100354.03;7600178;32;219392;-69
2022/10/10 20:08:24;;;;;;;6.47;2.62;;;;;;;14.40;45.98;100375.56;7606556;32;38012;-69